Bda Obrera, Puerto Rico
Current Conditions -  °F | °C
As of 9:53 PM on Monday 24 Nov 2014 (Local Time) from TJNR Reporting Station
Overcast Overcast  
Wind Chill: 77°   Ceiling: 2900
Heat Index: 78°   Visibility: 10mi
Dew Point: 73°   Wind: 8mph
Humidity: 88%   Direction: 110°ESE
Pressure: 30.09"   Gusts: NA
Location:  18.1494°N, 65.8294°W
Report Text: TJNR 250153Z AUTO 11007KT 10SM FEW022 BKN029 OVC060 25/23 A3009 RMK AO2 SLP190 T02500228 $
Loading
Personal Weather Stations






























Interactive Weather Map New forecast layout! Learn more

10-Day Weather Forecast

Advertisements
Track Severe Weather on mobile